sensor_id;sensor_type;location;lat;lon;timestamp;pressure;altitude;pressure_sealevel;temperature
13219;BMP180;6674;49.152;11.918;2023-05-02T00:00:45;95993.78;;;10.83
13219;BMP180;6674;49.152;11.918;2023-05-02T00:03:12;95992.94;;;10.72
13219;BMP180;6674;49.152;11.918;2023-05-02T00:05:38;95993.16;;;10.70
13219;BMP180;6674;49.152;11.918;2023-05-02T00:08:07;95997.97;;;10.67
13219;BMP180;6674;49.152;11.918;2023-05-02T00:10:34;95993.78;;;10.66
13219;BMP180;6674;49.152;11.918;2023-05-02T00:13:01;95997.81;;;10.62
13219;BMP180;6674;49.152;11.918;2023-05-02T00:15:28;95994.69;;;10.60
13219;BMP180;6674;49.152;11.918;2023-05-02T00:17:54;95995.53;;;10.54
13219;BMP180;6674;49.152;11.918;2023-05-02T00:20:21;95988.00;;;10.52
13219;BMP180;6674;49.152;11.918;2023-05-02T00:22:48;95992.38;;;10.52
13219;BMP180;6674;49.152;11.918;2023-05-02T00:25:16;96007.53;;;10.42
13219;BMP180;6674;49.152;11.918;2023-05-02T00:27:43;95998.06;;;10.36
13219;BMP180;6674;49.152;11.918;2023-05-02T00:30:11;96000.91;;;10.28
13219;BMP180;6674;49.152;11.918;2023-05-02T00:32:38;95997.41;;;10.23
13219;BMP180;6674;49.152;11.918;2023-05-02T00:35:06;95998.59;;;10.20
13219;BMP180;6674;49.152;11.918;2023-05-02T00:37:32;95995.81;;;10.22
13219;BMP180;6674;49.152;11.918;2023-05-02T00:39:59;95995.03;;;10.21
13219;BMP180;6674;49.152;11.918;2023-05-02T00:42:27;95987.38;;;10.15
13219;BMP180;6674;49.152;11.918;2023-05-02T00:44:56;95994.69;;;10.18
13219;BMP180;6674;49.152;11.918;2023-05-02T00:47:22;95998.59;;;10.20
13219;BMP180;6674;49.152;11.918;2023-05-02T00:49:49;96000.19;;;10.21
13219;BMP180;6674;49.152;11.918;2023-05-02T00:52:16;95988.81;;;10.11
13219;BMP180;6674;49.152;11.918;2023-05-02T00:54:43;95997.53;;;10.10
13219;BMP180;6674;49.152;11.918;2023-05-02T00:57:09;96000.09;;;10.10
13219;BMP180;6674;49.152;11.918;2023-05-02T00:59:38;95994.59;;;10.06
13219;BMP180;6674;49.152;11.918;2023-05-02T01:02:13;95996.59;;;10.04
13219;BMP180;6674;49.152;11.918;2023-05-02T01:04:52;95996.78;;;10.03
13219;BMP180;6674;49.152;11.918;2023-05-02T01:07:31;96007.75;;;9.92
13219;BMP180;6674;49.152;11.918;2023-05-02T01:10:11;96005.47;;;9.78
13219;BMP180;6674;49.152;11.918;2023-05-02T01:12:41;96016.63;;;9.72
13219;BMP180;6674;49.152;11.918;2023-05-02T01:15:14;96015.69;;;9.60
13219;BMP180;6674;49.152;11.918;2023-05-02T01:17:43;96012.94;;;9.55
13219;BMP180;6674;49.152;11.918;2023-05-02T01:20:13;96017.34;;;9.48
13219;BMP180;6674;49.152;11.918;2023-05-02T01:22:41;96014.53;;;9.56
13219;BMP180;6674;49.152;11.918;2023-05-02T01:25:19;96009.75;;;9.59
13219;BMP180;6674;49.152;11.918;2023-05-02T01:27:56;96018.69;;;9.57
13219;BMP180;6674;49.152;11.918;2023-05-02T01:30:28;96017.72;;;9.51
13219;BMP180;6674;49.152;11.918;2023-05-02T01:32:58;96019.94;;;9.48
13219;BMP180;6674;49.152;11.918;2023-05-02T01:35:26;96026.47;;;9.44
13219;BMP180;6674;49.152;11.918;2023-05-02T01:37:54;96024.72;;;9.45
13219;BMP180;6674;49.152;11.918;2023-05-02T01:40:24;96023.25;;;9.55
13219;BMP180;6674;49.152;11.918;2023-05-02T01:42:52;96013.97;;;9.54
13219;BMP180;6674;49.152;11.918;2023-05-02T01:45:20;96026.38;;;9.63
13219;BMP180;6674;49.152;11.918;2023-05-02T01:47:48;96025.59;;;9.63
13219;BMP180;6674;49.152;11.918;2023-05-02T01:50:18;96032.91;;;9.66
13219;BMP180;6674;49.152;11.918;2023-05-02T01:52:46;96037.44;;;9.70
13219;BMP180;6674;49.152;11.918;2023-05-02T01:55:15;96036.00;;;9.74
13219;BMP180;6674;49.152;11.918;2023-05-02T01:57:45;96036.22;;;9.73
13219;BMP180;6674;49.152;11.918;2023-05-02T02:00:13;96037.59;;;9.75
13219;BMP180;6674;49.152;11.918;2023-05-02T02:02:42;96032.09;;;9.72
13219;BMP180;6674;49.152;11.918;2023-05-02T02:05:13;96035.22;;;9.74
13219;BMP180;6674;49.152;11.918;2023-05-02T02:07:40;96041.38;;;9.73
13219;BMP180;6674;49.152;11.918;2023-05-02T02:10:08;96048.09;;;9.74
13219;BMP180;6674;49.152;11.918;2023-05-02T02:12:38;96041.38;;;9.73
13219;BMP180;6674;49.152;11.918;2023-05-02T02:15:12;96054.81;;;9.75
13219;BMP180;6674;49.152;11.918;2023-05-02T02:17:42;96046.94;;;9.70
13219;BMP180;6674;49.152;11.918;2023-05-02T02:20:11;96049.91;;;9.67
13219;BMP180;6674;49.152;11.918;2023-05-02T02:22:40;96047.00;;;9.57
13219;BMP180;6674;49.152;11.918;2023-05-02T02:25:10;96045.66;;;9.54
13219;BMP180;6674;49.152;11.918;2023-05-02T02:27:37;96059.72;;;9.52
13219;BMP180;6674;49.152;11.918;2023-05-02T02:30:06;96049.03;;;9.48
13219;BMP180;6674;49.152;11.918;2023-05-02T02:32:32;96050.22;;;9.52
13219;BMP180;6674;49.152;11.918;2023-05-02T02:35:00;96055.81;;;9.43
13219;BMP180;6674;49.152;11.918;2023-05-02T02:37:30;96055.41;;;9.46
13219;BMP180;6674;49.152;11.918;2023-05-02T02:40:02;96057.78;;;9.47
13219;BMP180;6674;49.152;11.918;2023-05-02T02:42:34;96058.56;;;9.48
13219;BMP180;6674;49.152;11.918;2023-05-02T02:45:13;96047.50;;;9.41
13219;BMP180;6674;49.152;11.918;2023-05-02T02:47:48;96055.81;;;9.43
13219;BMP180;6674;49.152;11.918;2023-05-02T02:50:19;96063.94;;;9.40
13219;BMP180;6674;49.152;11.918;2023-05-02T02:52:53;96063.94;;;9.40
13219;BMP180;6674;49.152;11.918;2023-05-02T02:55:30;96066.50;;;9.40
13219;BMP180;6674;49.152;11.918;2023-05-02T02:58:03;96065.72;;;9.40
13219;BMP180;6674;49.152;11.918;2023-05-02T03:00:34;96066.72;;;9.39
13219;BMP180;6674;49.152;11.918;2023-05-02T03:03:00;96059.78;;;9.39
13219;BMP180;6674;49.152;11.918;2023-05-02T03:05:28;96057.41;;;9.38
13219;BMP180;6674;49.152;11.918;2023-05-02T03:07:58;96066.50;;;9.40
13219;BMP180;6674;49.152;11.918;2023-05-02T03:10:24;96064.34;;;9.37
13219;BMP180;6674;49.152;11.918;2023-05-02T03:12:51;96071.09;;;9.32
13219;BMP180;6674;49.152;11.918;2023-05-02T03:18:31;96068.59;;;9.19
13219;BMP180;6674;49.152;11.918;2023-05-02T03:20:58;96071.34;;;9.17
13219;BMP180;6674;49.152;11.918;2023-05-02T03:23:26;96070.78;;;9.15
13219;BMP180;6674;49.152;11.918;2023-05-02T03:25:53;96070.81;;;9.09
13219;BMP180;6674;49.152;11.918;2023-05-02T03:28:20;96075.34;;;9.13
13219;BMP180;6674;49.152;11.918;2023-05-02T03:30:46;96071.34;;;9.17
13219;BMP180;6674;49.152;11.918;2023-05-02T03:33:13;96072.53;;;9.21
13219;BMP180;6674;49.152;11.918;2023-05-02T03:35:39;96071.34;;;9.24
13219;BMP180;6674;49.152;11.918;2023-05-02T03:38:06;96074.50;;;9.26
13219;BMP180;6674;49.152;11.918;2023-05-02T03:40:34;96070.56;;;9.23
13219;BMP180;6674;49.152;11.918;2023-05-02T03:43:01;96071.72;;;9.27
13219;BMP180;6674;49.152;11.918;2023-05-02T03:45:28;96071.91;;;9.26
13219;BMP180;6674;49.152;11.918;2023-05-02T03:47:54;96067.16;;;9.29
13219;BMP180;6674;49.152;11.918;2023-05-02T03:50:21;96072.91;;;9.31
13219;BMP180;6674;49.152;11.918;2023-05-02T03:52:48;96079.81;;;9.31
13219;BMP180;6674;49.152;11.918;2023-05-02T03:55:15;96084.38;;;9.29
13219;BMP180;6674;49.152;11.918;2023-05-02T03:57:43;96088.38;;;9.25
13219;BMP180;6674;49.152;11.918;2023-05-02T04:00:10;96093.91;;;9.28
13219;BMP180;6674;49.152;11.918;2023-05-02T04:02:37;96091.94;;;9.24
13219;BMP180;6674;49.152;11.918;2023-05-02T04:05:05;96088.56;;;9.23
13219;BMP180;6674;49.152;11.918;2023-05-02T04:07:33;96095.28;;;9.24
13219;BMP180;6674;49.152;11.918;2023-05-02T04:10:00;96099.44;;;9.25
13219;BMP180;6674;49.152;11.918;2023-05-02T04:12:27;96102.19;;;9.30
13219;BMP180;6674;49.152;11.918;2023-05-02T04:14:55;96100.59;;;9.29
13219;BMP180;6674;49.152;11.918;2023-05-02T04:17:21;96103.19;;;9.29
13219;BMP180;6674;49.152;11.918;2023-05-02T04:19:48;96100.59;;;9.29
13219;BMP180;6674;49.152;11.918;2023-05-02T04:22:15;96100.19;;;9.32
13219;BMP180;6674;49.152;11.918;2023-05-02T04:24:42;96102.94;;;9.37
13219;BMP180;6674;49.152;11.918;2023-05-02T04:27:08;96107.69;;;9.40
13219;BMP180;6674;49.152;11.918;2023-05-02T04:29:35;96110.66;;;9.44
13219;BMP180;6674;49.152;11.918;2023-05-02T04:32:04;96111.22;;;9.45
13219;BMP180;6674;49.152;11.918;2023-05-02T04:34:30;96115.19;;;9.48
13219;BMP180;6674;49.152;11.918;2023-05-02T04:36:57;96115.03;;;9.43
13219;BMP180;6674;49.152;11.918;2023-05-02T04:39:24;96116.78;;;9.49
13219;BMP180;6674;49.152;11.918;2023-05-02T04:41:50;96118.75;;;9.47
13219;BMP180;6674;49.152;11.918;2023-05-02T04:44:17;96122.91;;;9.48
13219;BMP180;6674;49.152;11.918;2023-05-02T04:46:44;96125.13;;;9.45
13219;BMP180;6674;49.152;11.918;2023-05-02T04:49:11;96134.59;;;9.44
13219;BMP180;6674;49.152;11.918;2023-05-02T04:51:38;96140.56;;;9.45
13219;BMP180;6674;49.152;11.918;2023-05-02T04:54:05;96147.28;;;9.45
13219;BMP180;6674;49.152;11.918;2023-05-02T04:56:32;96149.25;;;9.50
13219;BMP180;6674;49.152;11.918;2023-05-02T04:58:58;96155.41;;;9.49
13219;BMP180;6674;49.152;11.918;2023-05-02T05:01:25;96163.31;;;9.54
13219;BMP180;6674;49.152;11.918;2023-05-02T05:03:53;96162.69;;;9.58
13219;BMP180;6674;49.152;11.918;2023-05-02T05:06:21;96163.88;;;9.62
13219;BMP180;6674;49.152;11.918;2023-05-02T05:08:48;96174.31;;;9.74
13219;BMP180;6674;49.152;11.918;2023-05-02T05:11:15;96175.88;;;9.75
13219;BMP180;6674;49.152;11.918;2023-05-02T05:13:41;96173.09;;;9.83
13219;BMP180;6674;49.152;11.918;2023-05-02T05:16:08;96173.09;;;9.83
13219;BMP180;6674;49.152;11.918;2023-05-02T05:18:35;96188.34;;;9.84
13219;BMP180;6674;49.152;11.918;2023-05-02T05:21:05;96177.44;;;9.88
13219;BMP180;6674;49.152;11.918;2023-05-02T05:23:33;96179.03;;;9.83
13219;BMP180;6674;49.152;11.918;2023-05-02T05:26:08;96179.66;;;9.79
13219;BMP180;6674;49.152;11.918;2023-05-02T05:28:35;96173.69;;;9.78
13219;BMP180;6674;49.152;11.918;2023-05-02T05:31:04;96185.19;;;9.82
13219;BMP180;6674;49.152;11.918;2023-05-02T05:33:31;96182.41;;;9.84
13219;BMP180;6674;49.152;11.918;2023-05-02T05:36:03;96181.81;;;9.82
13219;BMP180;6674;49.152;11.918;2023-05-02T05:38:30;96178.59;;;9.86
13219;BMP180;6674;49.152;11.918;2023-05-02T05:40:58;96184.78;;;9.85
13219;BMP180;6674;49.152;11.918;2023-05-02T05:43:24;96182.78;;;9.87
13219;BMP180;6674;49.152;11.918;2023-05-02T05:45:51;96186.13;;;9.88
13219;BMP180;6674;49.152;11.918;2023-05-02T05:48:18;96186.13;;;9.88
13219;BMP180;6674;49.152;11.918;2023-05-02T05:50:44;96180.00;;;9.88
13219;BMP180;6674;49.152;11.918;2023-05-02T05:53:11;96190.50;;;9.93
13219;BMP180;6674;49.152;11.918;2023-05-02T05:55:38;96191.50;;;9.92
13219;BMP180;6674;49.152;11.918;2023-05-02T05:58:06;96192.69;;;9.96
13219;BMP180;6674;49.152;11.918;2023-05-02T06:00:33;96197.47;;;9.93
13219;BMP180;6674;49.152;11.918;2023-05-02T06:03:00;96196.81;;;9.97
13219;BMP180;6674;49.152;11.918;2023-05-02T06:05:26;96201.00;;;9.92
13219;BMP180;6674;49.152;11.918;2023-05-02T06:07:53;96191.09;;;9.95
13219;BMP180;6674;49.152;11.918;2023-05-02T06:10:20;96200.97;;;10.05
13219;BMP180;6674;49.152;11.918;2023-05-02T06:12:46;96204.47;;;10.17
13219;BMP180;6674;49.152;11.918;2023-05-02T06:15:14;96208.00;;;10.22
13219;BMP180;6674;49.152;11.918;2023-05-02T06:17:41;96208.69;;;10.42
13219;BMP180;6674;49.152;11.918;2023-05-02T06:20:08;96209.00;;;10.52
13219;BMP180;6674;49.152;11.918;2023-05-02T06:22:35;96215.06;;;10.64
13219;BMP180;6674;49.152;11.918;2023-05-02T06:25:02;96221.41;;;10.68
13219;BMP180;6674;49.152;11.918;2023-05-02T06:27:30;96223.78;;;10.69
13219;BMP180;6674;49.152;11.918;2023-05-02T06:29:56;96216.00;;;10.76
13219;BMP180;6674;49.152;11.918;2023-05-02T06:32:29;96224.47;;;10.82
13219;BMP180;6674;49.152;11.918;2023-05-02T06:34:55;96234.16;;;10.87
13219;BMP180;6674;49.152;11.918;2023-05-02T06:37:22;96232.13;;;10.95
13219;BMP180;6674;49.152;11.918;2023-05-02T06:39:49;96241.22;;;10.98
13219;BMP180;6674;49.152;11.918;2023-05-02T06:42:15;96235.84;;;10.99
13219;BMP180;6674;49.152;11.918;2023-05-02T06:44:42;96235.00;;;11.05
13219;BMP180;6674;49.152;11.918;2023-05-02T06:47:09;96240.47;;;11.15
13219;BMP180;6674;49.152;11.918;2023-05-02T06:49:37;96246.56;;;11.20
13219;BMP180;6674;49.152;11.918;2023-05-02T06:52:03;96246.38;;;11.22
13219;BMP180;6674;49.152;11.918;2023-05-02T06:54:30;96248.16;;;11.21
13219;BMP180;6674;49.152;11.918;2023-05-02T06:56:58;96252.47;;;11.27
13219;BMP180;6674;49.152;11.918;2023-05-02T06:59:25;96257.22;;;11.30
13219;BMP180;6674;49.152;11.918;2023-05-02T07:01:51;96257.91;;;11.44
13219;BMP180;6674;49.152;11.918;2023-05-02T07:04:18;96266.25;;;11.46
13219;BMP180;6674;49.152;11.918;2023-05-02T07:06:46;96265.31;;;11.58
13219;BMP180;6674;49.152;11.918;2023-05-02T07:09:13;96266.13;;;11.59
13219;BMP180;6674;49.152;11.918;2023-05-02T07:11:40;96274.31;;;11.73
13219;BMP180;6674;49.152;11.918;2023-05-02T07:14:06;96274.03;;;11.81
13219;BMP180;6674;49.152;11.918;2023-05-02T07:16:33;96274.47;;;11.96
13219;BMP180;6674;49.152;11.918;2023-05-02T07:19:00;96282.50;;;11.88
13219;BMP180;6674;49.152;11.918;2023-05-02T07:21:28;96279.94;;;11.88
13219;BMP180;6674;49.152;11.918;2023-05-02T07:23:58;96286.75;;;12.01
13219;BMP180;6674;49.152;11.918;2023-05-02T07:26:25;96290.25;;;12.06
13219;BMP180;6674;49.152;11.918;2023-05-02T07:28:51;96290.97;;;12.13
13219;BMP180;6674;49.152;11.918;2023-05-02T07:31:18;96289.69;;;12.22
13219;BMP180;6674;49.152;11.918;2023-05-02T07:33:45;96285.13;;;12.35
13219;BMP180;6674;49.152;11.918;2023-05-02T07:36:12;96294.25;;;12.38
13219;BMP180;6674;49.152;11.918;2023-05-02T07:38:38;96290.59;;;12.45
13219;BMP180;6674;49.152;11.918;2023-05-02T07:41:06;96299.97;;;12.57
13219;BMP180;6674;49.152;11.918;2023-05-02T07:43:33;96287.59;;;12.59
13219;BMP180;6674;49.152;11.918;2023-05-02T07:46:03;96299.44;;;12.67
13219;BMP180;6674;49.152;11.918;2023-05-02T07:48:30;96295.88;;;12.79
13219;BMP180;6674;49.152;11.918;2023-05-02T07:51:04;96301.22;;;12.84
13219;BMP180;6674;49.152;11.918;2023-05-02T07:53:31;96304.84;;;12.94
13219;BMP180;6674;49.152;11.918;2023-05-02T07:55:58;96310.41;;;12.98
13219;BMP180;6674;49.152;11.918;2023-05-02T07:58:26;96304.00;;;13.12
13219;BMP180;6674;49.152;11.918;2023-05-02T08:00:53;96309.72;;;13.14
13219;BMP180;6674;49.152;11.918;2023-05-02T08:03:19;96318.66;;;13.18
13219;BMP180;6674;49.152;11.918;2023-05-02T08:05:46;96321.13;;;13.13
13219;BMP180;6674;49.152;11.918;2023-05-02T08:08:13;96317.84;;;13.17
13219;BMP180;6674;49.152;11.918;2023-05-02T08:10:39;96321.94;;;13.25
13219;BMP180;6674;49.152;11.918;2023-05-02T08:13:06;96328.25;;;13.29
13219;BMP180;6674;49.152;11.918;2023-05-02T08:15:34;96323.84;;;13.29
13219;BMP180;6674;49.152;11.918;2023-05-02T08:18:01;96323.88;;;13.40
13219;BMP180;6674;49.152;11.918;2023-05-02T08:20:27;96336.84;;;13.40
13219;BMP180;6674;49.152;11.918;2023-05-02T08:22:54;96325.91;;;13.38
13219;BMP180;6674;49.152;11.918;2023-05-02T08:25:21;96322.53;;;13.49
13219;BMP180;6674;49.152;11.918;2023-05-02T08:27:47;96347.09;;;13.58
13219;BMP180;6674;49.152;11.918;2023-05-02T08:30:14;96336.19;;;13.56
13219;BMP180;6674;49.152;11.918;2023-05-02T08:32:42;96342.16;;;13.57
13219;BMP180;6674;49.152;11.918;2023-05-02T08:35:09;96349.38;;;13.66
13219;BMP180;6674;49.152;11.918;2023-05-02T08:37:38;96348.22;;;13.74
13219;BMP180;6674;49.152;11.918;2023-05-02T08:40:05;96349.16;;;13.79
13219;BMP180;6674;49.152;11.918;2023-05-02T08:42:33;96348.91;;;13.80
13219;BMP180;6674;49.152;11.918;2023-05-02T08:45:01;96349.03;;;13.85
13219;BMP180;6674;49.152;11.918;2023-05-02T08:47:29;96347.44;;;13.84
13219;BMP180;6674;49.152;11.918;2023-05-02T08:49:59;96363.22;;;13.94
13219;BMP180;6674;49.152;11.918;2023-05-02T08:52:26;96355.78;;;13.98
13219;BMP180;6674;49.152;11.918;2023-05-02T08:54:53;96363.38;;;14.11
13219;BMP180;6674;49.152;11.918;2023-05-02T08:57:20;96357.28;;;14.17
13219;BMP180;6674;49.152;11.918;2023-05-02T08:59:47;96366.84;;;14.16
13219;BMP180;6674;49.152;11.918;2023-05-02T09:02:23;96366.59;;;14.29
13219;BMP180;6674;49.152;11.918;2023-05-02T09:04:55;96368.31;;;14.23
13219;BMP180;6674;49.152;11.918;2023-05-02T09:07:25;96370.38;;;14.10
13219;BMP180;6674;49.152;11.918;2023-05-02T09:09:52;96381.41;;;14.06
13219;BMP180;6674;49.152;11.918;2023-05-02T09:12:24;96384.09;;;13.88
13219;BMP180;6674;49.152;11.918;2023-05-02T09:15:09;96389.94;;;13.72
13219;BMP180;6674;49.152;11.918;2023-05-02T09:17:40;96400.88;;;13.63
13219;BMP180;6674;49.152;11.918;2023-05-02T09:20:07;96397.72;;;13.83
13219;BMP180;6674;49.152;11.918;2023-05-02T09:22:37;96393.66;;;13.65
13219;BMP180;6674;49.152;11.918;2023-05-02T09:25:05;96399.31;;;13.84
13219;BMP180;6674;49.152;11.918;2023-05-02T09:27:52;96406.22;;;14.02
13219;BMP180;6674;49.152;11.918;2023-05-02T09:30:22;96410.53;;;13.56
13219;BMP180;6674;49.152;11.918;2023-05-02T09:32:50;96407.97;;;13.67
13219;BMP180;6674;49.152;11.918;2023-05-02T09:35:20;96408.09;;;13.72
13219;BMP180;6674;49.152;11.918;2023-05-02T09:37:54;96405.16;;;13.69
13219;BMP180;6674;49.152;11.918;2023-05-02T09:40:21;96408.00;;;13.90
13219;BMP180;6674;49.152;11.918;2023-05-02T09:42:48;96406.66;;;13.99
13219;BMP180;6674;49.152;11.918;2023-05-02T09:45:19;96405.84;;;13.98
13219;BMP180;6674;49.152;11.918;2023-05-02T09:47:46;96408.69;;;13.74
13219;BMP180;6674;49.152;11.918;2023-05-02T09:50:32;96405.38;;;13.78
13219;BMP180;6674;49.152;11.918;2023-05-02T09:53:04;96410.72;;;14.18
13219;BMP180;6674;49.152;11.918;2023-05-02T09:55:31;96423.13;;;14.38
13219;BMP180;6674;49.152;11.918;2023-05-02T09:57:58;96421.53;;;14.60
13219;BMP180;6674;49.152;11.918;2023-05-02T10:00:38;96422.13;;;14.28
13219;BMP180;6674;49.152;11.918;2023-05-02T10:03:05;96429.00;;;14.45
13219;BMP180;6674;49.152;11.918;2023-05-02T10:05:35;96434.28;;;14.39
13219;BMP180;6674;49.152;11.918;2023-05-02T10:08:04;96434.81;;;13.73
13219;BMP180;6674;49.152;11.918;2023-05-02T10:10:32;96424.91;;;13.92
13219;BMP180;6674;49.152;11.918;2023-05-02T10:12:59;96433.44;;;13.70
13219;BMP180;6674;49.152;11.918;2023-05-02T10:15:30;96420.53;;;14.04
13219;BMP180;6674;49.152;11.918;2023-05-02T10:17:58;96423.00;;;13.88
13219;BMP180;6674;49.152;11.918;2023-05-02T10:20:29;96423.78;;;14.00
13219;BMP180;6674;49.152;11.918;2023-05-02T10:22:58;96427.31;;;14.05
13219;BMP180;6674;49.152;11.918;2023-05-02T10:25:27;96430.44;;;13.84
13219;BMP180;6674;49.152;11.918;2023-05-02T10:27:55;96418.97;;;14.37
13219;BMP180;6674;49.152;11.918;2023-05-02T10:30:23;96419.16;;;14.70
13219;BMP180;6674;49.152;11.918;2023-05-02T10:32:50;96426.88;;;14.93
13219;BMP180;6674;49.152;11.918;2023-05-02T10:35:18;96424.22;;;15.15
13219;BMP180;6674;49.152;11.918;2023-05-02T10:37:46;96420.66;;;15.49
13219;BMP180;6674;49.152;11.918;2023-05-02T10:40:14;96417.66;;;15.41
13219;BMP180;6674;49.152;11.918;2023-05-02T10:42:43;96415.69;;;15.48
13219;BMP180;6674;49.152;11.918;2023-05-02T10:45:11;96418.00;;;15.77
13219;BMP180;6674;49.152;11.918;2023-05-02T10:47:38;96417.91;;;15.55
13219;BMP180;6674;49.152;11.918;2023-05-02T10:50:06;96411.78;;;15.61
13219;BMP180;6674;49.152;11.918;2023-05-02T10:52:34;96402.50;;;15.82
13219;BMP180;6674;49.152;11.918;2023-05-02T10:55:16;96404.19;;;15.44
13219;BMP180;6674;49.152;11.918;2023-05-02T10:58:20;96394.59;;;15.77
13219;BMP180;6674;49.152;11.918;2023-05-02T11:00:47;96402.81;;;16.01
13219;BMP180;6674;49.152;11.918;2023-05-02T11:03:14;96412.56;;;16.11
13219;BMP180;6674;49.152;11.918;2023-05-02T11:06:05;96402.09;;;16.39
13219;BMP180;6674;49.152;11.918;2023-05-02T11:08:32;96402.56;;;16.57
13219;BMP180;6674;49.152;11.918;2023-05-02T11:13:59;96395.59;;;16.83
13219;BMP180;6674;49.152;11.918;2023-05-02T11:16:26;96398.97;;;16.79
13219;BMP180;6674;49.152;11.918;2023-05-02T11:18:59;96397.66;;;16.39
13219;BMP180;6674;49.152;11.918;2023-05-02T11:21:27;96392.28;;;16.67
13219;BMP180;6674;49.152;11.918;2023-05-02T11:30:05;96385.47;;;17.08
13219;BMP180;6674;49.152;11.918;2023-05-02T11:35:34;96384.69;;;17.34
13219;BMP180;6674;49.152;11.918;2023-05-02T11:38:02;96389.84;;;17.55
13219;BMP180;6674;49.152;11.918;2023-05-02T11:40:30;96382.91;;;17.66
13219;BMP180;6674;49.152;11.918;2023-05-02T11:42:58;96377.84;;;17.85
13219;BMP180;6674;49.152;11.918;2023-05-02T11:45:32;96378.44;;;17.97
13219;BMP180;6674;49.152;11.918;2023-05-02T11:48:00;96376.44;;;18.04
13219;BMP180;6674;49.152;11.918;2023-05-02T11:50:28;96375.34;;;18.00
13219;BMP180;6674;49.152;11.918;2023-05-02T11:52:54;96374.53;;;17.95
13219;BMP180;6674;49.152;11.918;2023-05-02T11:55:21;96367.97;;;17.92
13219;BMP180;6674;49.152;11.918;2023-05-02T11:57:48;96379.16;;;17.83
13219;BMP180;6674;49.152;11.918;2023-05-02T12:00:15;96380.66;;;17.48
13219;BMP180;6674;49.152;11.918;2023-05-02T12:02:45;96382.22;;;17.49
13219;BMP180;6674;49.152;11.918;2023-05-02T12:05:12;96385.34;;;16.98
13219;BMP180;6674;49.152;11.918;2023-05-02T12:07:41;96381.53;;;17.06
13219;BMP180;6674;49.152;11.918;2023-05-02T12:10:10;96385.69;;;17.28
13219;BMP180;6674;49.152;11.918;2023-05-02T12:12:38;96385.97;;;17.58
13219;BMP180;6674;49.152;11.918;2023-05-02T12:15:06;96372.50;;;17.71
13219;BMP180;6674;49.152;11.918;2023-05-02T12:17:36;96385.63;;;17.80
13219;BMP180;6674;49.152;11.918;2023-05-02T12:20:06;96376.03;;;17.55
13219;BMP180;6674;49.152;11.918;2023-05-02T12:22:33;96389.69;;;17.67
13219;BMP180;6674;49.152;11.918;2023-05-02T12:25:01;96375.63;;;17.68
13219;BMP180;6674;49.152;11.918;2023-05-02T12:27:28;96377.97;;;17.69
13219;BMP180;6674;49.152;11.918;2023-05-02T12:29:57;96377.78;;;17.75
13219;BMP180;6674;49.152;11.918;2023-05-02T12:32:28;96376.53;;;17.52
13219;BMP180;6674;49.152;11.918;2023-05-02T12:34:55;96377.81;;;17.49
13219;BMP180;6674;49.152;11.918;2023-05-02T12:37:25;96374.88;;;17.72
13219;BMP180;6674;49.152;11.918;2023-05-02T12:39:52;96375.91;;;17.71
13219;BMP180;6674;49.152;11.918;2023-05-02T12:42:21;96377.09;;;17.90
13219;BMP180;6674;49.152;11.918;2023-05-02T12:44:49;96379.66;;;18.16
13219;BMP180;6674;49.152;11.918;2023-05-02T12:47:18;96374.00;;;18.29
13219;BMP180;6674;49.152;11.918;2023-05-02T12:49:49;96368.97;;;18.17
13219;BMP180;6674;49.152;11.918;2023-05-02T12:52:16;96367.41;;;18.21
13219;BMP180;6674;49.152;11.918;2023-05-02T12:54:45;96366.97;;;17.98
13219;BMP180;6674;49.152;11.918;2023-05-02T12:57:21;96357.31;;;18.35
13219;BMP180;6674;49.152;11.918;2023-05-02T12:59:50;96366.78;;;18.51
13219;BMP180;6674;49.152;11.918;2023-05-02T13:02:17;96368.53;;;18.30
13219;BMP180;6674;49.152;11.918;2023-05-02T13:04:44;96365.44;;;18.38
13219;BMP180;6674;49.152;11.918;2023-05-02T13:07:11;96373.00;;;18.35
13219;BMP180;6674;49.152;11.918;2023-05-02T13:09:38;96365.41;;;18.33
13219;BMP180;6674;49.152;11.918;2023-05-02T13:12:06;96369.00;;;18.22
13219;BMP180;6674;49.152;11.918;2023-05-02T13:14:32;96363.84;;;17.96
13219;BMP180;6674;49.152;11.918;2023-05-02T13:16:59;96368.19;;;17.86
13219;BMP180;6674;49.152;11.918;2023-05-02T13:19:25;96360.03;;;17.77
13219;BMP180;6674;49.152;11.918;2023-05-02T13:21:55;96368.34;;;18.06
13219;BMP180;6674;49.152;11.918;2023-05-02T13:24:22;96365.47;;;18.43
13219;BMP180;6674;49.152;11.918;2023-05-02T13:26:48;96363.22;;;18.71
13219;BMP180;6674;49.152;11.918;2023-05-02T13:29:16;96363.47;;;18.70
13219;BMP180;6674;49.152;11.918;2023-05-02T13:31:43;96365.63;;;18.88
13219;BMP180;6674;49.152;11.918;2023-05-02T13:34:09;96361.56;;;19.06
13219;BMP180;6674;49.152;11.918;2023-05-02T13:36:36;96367.25;;;18.99
13219;BMP180;6674;49.152;11.918;2023-05-02T13:39:08;96357.09;;;19.07
13219;BMP180;6674;49.152;11.918;2023-05-02T13:41:34;96355.59;;;19.26
13219;BMP180;6674;49.152;11.918;2023-05-02T13:44:01;96352.72;;;19.47
13219;BMP180;6674;49.152;11.918;2023-05-02T13:46:29;96345.91;;;19.71
13219;BMP180;6674;49.152;11.918;2023-05-02T13:49:00;96350.38;;;19.90
13219;BMP180;6674;49.152;11.918;2023-05-02T13:51:28;96344.63;;;19.68
13219;BMP180;6674;49.152;11.918;2023-05-02T13:53:55;96344.09;;;19.71
13219;BMP180;6674;49.152;11.918;2023-05-02T13:56:22;96350.91;;;20.12
13219;BMP180;6674;49.152;11.918;2023-05-02T13:58:48;96340.94;;;20.09
13219;BMP180;6674;49.152;11.918;2023-05-02T14:01:15;96353.41;;;20.51
13219;BMP180;6674;49.152;11.918;2023-05-02T14:03:43;96353.97;;;19.05
13219;BMP180;6674;49.152;11.918;2023-05-02T14:06:10;96352.22;;;19.90
13219;BMP180;6674;49.152;11.918;2023-05-02T14:08:36;96367.09;;;19.59
13219;BMP180;6674;49.152;11.918;2023-05-02T14:11:03;96358.22;;;19.36
13219;BMP180;6674;49.152;11.918;2023-05-02T14:13:30;96360.81;;;19.21
13219;BMP180;6674;49.152;11.918;2023-05-02T14:15:56;96355.53;;;19.16
13219;BMP180;6674;49.152;11.918;2023-05-02T14:18:24;96358.72;;;19.28
13219;BMP180;6674;49.152;11.918;2023-05-02T14:20:52;96364.34;;;18.85
13219;BMP180;6674;49.152;11.918;2023-05-02T14:23:19;96369.59;;;18.90
13219;BMP180;6674;49.152;11.918;2023-05-02T14:25:46;96353.41;;;18.98
13219;BMP180;6674;49.152;11.918;2023-05-02T14:28:12;96356.28;;;18.97
13219;BMP180;6674;49.152;11.918;2023-05-02T14:30:39;96362.72;;;18.74
13219;BMP180;6674;49.152;11.918;2023-05-02T14:33:06;96366.38;;;18.73
13219;BMP180;6674;49.152;11.918;2023-05-02T14:35:32;96361.13;;;18.68